Barbados Meteorological Services
Auto gathered TAF list
Powered by Apparatus software
For Flight AA2725
Contact Number 1-(246)-535-0021/2/3/4/5/6
WEB: http://www.barbadosweather.org

**********************************************

2017/01/22 18:27
TAF TLPL 221724Z 2218/2318 07012KT 9999 SCT025


**********************************************
2017/01/22 18:42
TAF TJSJ 221734Z 2218/2318 03010KT P6SM FEW028 SCT060
FM222200 00000KT P6SM FEW030
FM231400 11010KT P6SM SCT030


**********************************************
2017/01/22 18:07
TAF TFFR 221700Z 2218/2318 VRB03KT 9999 SCT035
BECMG 2314/2316 10006KT


**********************************************
2017/01/22 12:03
TAF TAF TBPB 221100Z 2212/2312 09013KT 9999 SCT018 SCT038 PROB30
TEMPO 2212/2220 8000 SHRA BKN016


**********************************************
2017/01/22 18:03
TAF TAF TAPA 221700Z 2218/2318 09005KT 9999 FEW024


**********************************************
2017/01/22 18:40
TAF MYNN 221740Z 2218/2318 20020KT 9999 FEW025
FM230600Z 20020G35KT 4800 SHRA SCT015CB BKN040 PROB30 2315/2317 3200 TSRA SCT014CB BKN200


**********************************************
2017/01/22 18:12
TAF MTPP 221700Z 2218/2318 30008KT 9999 FEW026
FM230500 VRB02KT 8000 FEW020
BECMG 2313/2315 10010KT


**********************************************
2017/01/22 18:12
TAF MDSD 221600Z 2218/2318 07006KT 9999 FEW020 SCT300
BECMG 2303/2305 02004KT


**********************************************
2017/01/22 21:30
TAF
AMD KSFB 222125Z 2221/2318 21020G35KT P6SM VCSH SCT045 BKN060
FM222300 22018G28KT P6SM VCTS BKN035CB
TEMPO 2300/2302 25030G40KT 2SM +TSRA BKN015CB
FM230200 23015G25KT P6SM -SHRA BKN035
FM230500 22015KT P6SM BKN035


**********************************************
2017/01/22 21:54
TAF
AMD KPHL 222046Z 2221/2324 05007KT 1SM -RADZ BR OVC006
FM222300 05010KT 1SM -RADZ BR OVC003
FM230400 05015G22KT 1SM -RADZ BR OVC003
FM230700 05022G28KT 1SM -RADZ BR OVC004
FM231100 06025G35KT 3SM RA BR OVC006


**********************************************
2017/01/22 22:51
TAF
AMD KPBI 222144Z 2222/2318 21022G29KT P6SM VCSH SCT040 BKN050
TEMPO 2304/2308 VRB23G30KT 4SM TSRA BKN025CB BKN050
FM231200 22017G25KT P6SM SCT050 SCT250


**********************************************
2017/01/22 20:15
TAF
AMD KOPF 222012Z 2220/2318 20019G29KT P6SM SCT040
FM222300 20018G27KT P6SM VCSH SCT025 BKN050 OVC250 PROB30 2305/2309 VRB20G30KT 4SM TSRA BKN025CB BKN050
FM231200 25016G23KT P6SM SCT040 SCT100 BKN250


**********************************************


**********************************************
2017/01/22 20:12
TAF
AMD KMIA 222006Z 2220/2318 20019G29KT P6SM SCT035
FM222300 20018G27KT P6SM VCSH SCT025 BKN050 OVC250 PROB30 2305/2309 VRB20G30KT 4SM TSRA BKN025CB BKN050
FM231200 22014G22KT P6SM SCT040 SCT100 BKN250


**********************************************
2017/01/22 21:57
TAF
AMD KMCO 222052Z 2221/2318 21018G30KT P6SM VCSH SCT040 BKN060
TEMPO 2221/2222 22020G35KT 3SM SHRA BKN035
FM222200 21020G33KT P6SM VCTS SCT035CB BKN060
TEMPO 2300/2302 25030G40KT 2SM +TSRA BKN015CB
FM230200 23015G25KT P6SM -SHRA BKN035
FM230500 22015KT P6SM BKN035


**********************************************
2017/01/22 22:57
TAF
AMD KJFK 222153Z 2222/2324 04006KT 3SM BR OVC025
TEMPO 2222/2223 4SM -SHRA BR BKN018
FM222300 04011G17KT 5SM BR OVC012
FM230300 06015G25KT 6SM BR OVC010
FM231200 06024G34KT 5SM -RA BR OVC010
FM231500 06029G45KT 3SM RA BR OVC010
FM232100 06029G55KT 4SM +RA BR OVC015


**********************************************
2017/01/22 21:15
TAF
AMD KJAX 222111Z 2221/2318 10008KT P6SM -RA VCTS FEW025 BKN045CB BKN060
FM222300 21015G25KT P6SM -RA VCTS FEW015 BKN030CB BKN060
TEMPO 2223/2301 VRB30G50KT 1/2SM +TSRA SCT010 BKN020CB OVC050
FM230100 21012G25KT P6SM VCTS SCT025CB SCT050 BKN100
FM230200 24015G22KT P6SM VCSH SCT050 BKN150


**********************************************
2017/01/22 22:54
TAF
AMD KFLL 222148Z 2222/2318 21019G30KT P6SM VCSH SCT035 BKN060
FM230400 21018G27KT P6SM VCSH SCT025 BKN050
TEMPO 2304/2308 VRB20G30KT 4SM TSRA BKN025CB BKN050
FM231200 24014G23KT P6SM SCT040 SCT100 BKN250


**********************************************
2017/01/22 22:57
TAF
AMD KEWR 222155Z 2222/2324 03010KT 5SM -SHRA BR OVC020
TEMPO 2222/2223 3SM BR BKN017
FM222300 05011G17KT 5SM BR OVC012
FM230300 04014G23KT 6SM BR OVC010
FM231200 04023G31KT 5SM -RA BR OVC010
FM231500 03028G40KT 3SM RA BR OVC010
FM232100 06029G50KT 4SM +RA BR OVC015


**********************************************
2017/01/22 21:09
TAF KCLT 222105Z 2221/2318 14005KT P6SM BKN019 OVC050
TEMPO 2221/2223 04006KT SCT019 SCT050 OVC220
FM222300 12005KT 3SM -SHRA OVC008
FM230100 13010G19KT 1SM TSRA BR OVC003CB
FM230200 14015G23KT 2SM TSRA BR OVC005CB
FM230700 20013G21KT 2SM BR VCSH OVC008
FM231200 19006KT 1SM -SHRA BR OVC010


**********************************************
2017/01/22 22:36
TAF
AMD KATL 222131Z 2222/2324 10015G25KT 3SM -RA BR OVC008
FM222300 22012G20KT 4SM SHRA SCT006 OVC015
FM230100 25014KT P6SM BKN015
FM230400 26012KT 5SM -RA BR BKN009
FM231000 30015G25KT P6SM BKN009
FM231300 31020G30KT P6SM SCT015 BKN030
FM231500 31022G32KT P6SM SCT050


**********************************************